sensor_id;sensor_type;location;lat;lon;timestamp;temperature;humidity
15394;DHT22;7795;47.986;11.868;2024-03-22T00:00:16;9.60;79.40
15394;DHT22;7795;47.986;11.868;2024-03-22T00:02:42;9.50;79.30
15394;DHT22;7795;47.986;11.868;2024-03-22T00:05:08;9.60;79.40
15394;DHT22;7795;47.986;11.868;2024-03-22T00:07:34;9.50;79.40
15394;DHT22;7795;47.986;11.868;2024-03-22T00:10:00;9.50;79.40
15394;DHT22;7795;47.986;11.868;2024-03-22T00:12:25;9.50;79.50
15394;DHT22;7795;47.986;11.868;2024-03-22T00:14:53;9.40;79.50
15394;DHT22;7795;47.986;11.868;2024-03-22T00:17:20;9.40;79.50
15394;DHT22;7795;47.986;11.868;2024-03-22T00:19:45;9.40;79.50
15394;DHT22;7795;47.986;11.868;2024-03-22T00:22:11;9.40;79.70
15394;DHT22;7795;47.986;11.868;2024-03-22T00:24:37;9.30;79.70
15394;DHT22;7795;47.986;11.868;2024-03-22T00:27:03;9.30;79.70
15394;DHT22;7795;47.986;11.868;2024-03-22T00:29:29;9.30;79.70
15394;DHT22;7795;47.986;11.868;2024-03-22T00:31:56;9.30;79.50
15394;DHT22;7795;47.986;11.868;2024-03-22T00:34:22;9.30;79.50
15394;DHT22;7795;47.986;11.868;2024-03-22T00:36:48;9.20;79.40
15394;DHT22;7795;47.986;11.868;2024-03-22T00:39:14;9.20;79.40
15394;DHT22;7795;47.986;11.868;2024-03-22T00:41:39;9.20;79.40
15394;DHT22;7795;47.986;11.868;2024-03-22T00:44:05;9.10;79.30
15394;DHT22;7795;47.986;11.868;2024-03-22T00:46:31;9.10;79.20
15394;DHT22;7795;47.986;11.868;2024-03-22T00:48:58;9.00;79.20
15394;DHT22;7795;47.986;11.868;2024-03-22T00:51:25;9.00;79.30
15394;DHT22;7795;47.986;11.868;2024-03-22T00:53:51;9.00;79.40
15394;DHT22;7795;47.986;11.868;2024-03-22T00:56:17;9.00;79.40
15394;DHT22;7795;47.986;11.868;2024-03-22T00:58:43;8.90;79.30
15394;DHT22;7795;47.986;11.868;2024-03-22T01:01:08;8.90;79.40
15394;DHT22;7795;47.986;11.868;2024-03-22T01:03:34;8.90;79.30
15394;DHT22;7795;47.986;11.868;2024-03-22T01:06:01;8.80;79.20
15394;DHT22;7795;47.986;11.868;2024-03-22T01:08:27;8.80;79.20
15394;DHT22;7795;47.986;11.868;2024-03-22T01:10:53;8.70;79.00
15394;DHT22;7795;47.986;11.868;2024-03-22T01:13:19;8.70;78.80
15394;DHT22;7795;47.986;11.868;2024-03-22T01:15:45;8.70;78.80
15394;DHT22;7795;47.986;11.868;2024-03-22T01:18:13;8.60;78.70
15394;DHT22;7795;47.986;11.868;2024-03-22T01:20:39;8.60;78.80
15394;DHT22;7795;47.986;11.868;2024-03-22T01:23:06;8.50;78.90
15394;DHT22;7795;47.986;11.868;2024-03-22T01:25:32;8.50;79.10
15394;DHT22;7795;47.986;11.868;2024-03-22T01:27:58;8.50;79.10
15394;DHT22;7795;47.986;11.868;2024-03-22T01:30:24;8.40;79.10
15394;DHT22;7795;47.986;11.868;2024-03-22T01:32:54;8.40;79.20
15394;DHT22;7795;47.986;11.868;2024-03-22T01:35:19;8.40;79.30
15394;DHT22;7795;47.986;11.868;2024-03-22T01:37:45;8.40;79.50
15394;DHT22;7795;47.986;11.868;2024-03-22T01:40:13;8.30;79.50
15394;DHT22;7795;47.986;11.868;2024-03-22T01:42:39;8.30;79.50
15394;DHT22;7795;47.986;11.868;2024-03-22T01:45:05;8.30;79.20
15394;DHT22;7795;47.986;11.868;2024-03-22T01:47:31;8.30;79.10
15394;DHT22;7795;47.986;11.868;2024-03-22T01:49:58;8.20;79.10
15394;DHT22;7795;47.986;11.868;2024-03-22T01:52:24;8.20;79.20
15394;DHT22;7795;47.986;11.868;2024-03-22T01:54:50;8.20;79.30
15394;DHT22;7795;47.986;11.868;2024-03-22T01:57:17;8.20;79.40
15394;DHT22;7795;47.986;11.868;2024-03-22T01:59:43;8.10;79.40
15394;DHT22;7795;47.986;11.868;2024-03-22T02:02:10;8.10;79.50
15394;DHT22;7795;47.986;11.868;2024-03-22T02:04:37;8.10;79.60
15394;DHT22;7795;47.986;11.868;2024-03-22T02:07:02;8.10;79.70
15394;DHT22;7795;47.986;11.868;2024-03-22T02:09:29;8.10;79.80
15394;DHT22;7795;47.986;11.868;2024-03-22T02:11:55;8.10;79.80
15394;DHT22;7795;47.986;11.868;2024-03-22T02:14:22;8.10;79.70
15394;DHT22;7795;47.986;11.868;2024-03-22T02:16:48;8.00;79.40
15394;DHT22;7795;47.986;11.868;2024-03-22T02:19:14;8.00;79.10
15394;DHT22;7795;47.986;11.868;2024-03-22T02:21:40;8.00;79.00
15394;DHT22;7795;47.986;11.868;2024-03-22T02:24:07;7.90;78.90
15394;DHT22;7795;47.986;11.868;2024-03-22T02:26:33;7.90;79.00
15394;DHT22;7795;47.986;11.868;2024-03-22T02:28:59;7.80;79.00
15394;DHT22;7795;47.986;11.868;2024-03-22T02:31:25;7.80;79.10
15394;DHT22;7795;47.986;11.868;2024-03-22T02:33:52;7.80;79.20
15394;DHT22;7795;47.986;11.868;2024-03-22T02:36:18;7.70;79.10
15394;DHT22;7795;47.986;11.868;2024-03-22T02:38:44;7.70;79.20
15394;DHT22;7795;47.986;11.868;2024-03-22T02:41:11;7.70;79.20
15394;DHT22;7795;47.986;11.868;2024-03-22T02:43:37;7.70;79.30
15394;DHT22;7795;47.986;11.868;2024-03-22T02:46:03;7.60;79.30
15394;DHT22;7795;47.986;11.868;2024-03-22T02:48:29;7.60;79.30
15394;DHT22;7795;47.986;11.868;2024-03-22T02:50:55;7.60;79.30
15394;DHT22;7795;47.986;11.868;2024-03-22T02:53:22;7.60;79.40
15394;DHT22;7795;47.986;11.868;2024-03-22T02:55:47;7.60;79.40
15394;DHT22;7795;47.986;11.868;2024-03-22T02:58:16;7.60;79.50
15394;DHT22;7795;47.986;11.868;2024-03-22T03:00:42;7.50;79.60
15394;DHT22;7795;47.986;11.868;2024-03-22T03:03:08;7.50;79.50
15394;DHT22;7795;47.986;11.868;2024-03-22T03:05:34;7.50;79.40
15394;DHT22;7795;47.986;11.868;2024-03-22T03:08:03;7.50;79.40
15394;DHT22;7795;47.986;11.868;2024-03-22T03:10:29;7.40;79.30
15394;DHT22;7795;47.986;11.868;2024-03-22T03:12:55;7.40;79.30
15394;DHT22;7795;47.986;11.868;2024-03-22T03:15:22;7.30;79.30
15394;DHT22;7795;47.986;11.868;2024-03-22T03:17:48;7.40;79.30
15394;DHT22;7795;47.986;11.868;2024-03-22T03:20:14;7.30;79.10
15394;DHT22;7795;47.986;11.868;2024-03-22T03:22:41;7.30;79.20
15394;DHT22;7795;47.986;11.868;2024-03-22T03:25:07;7.20;79.00
15394;DHT22;7795;47.986;11.868;2024-03-22T03:27:33;7.20;79.20
15394;DHT22;7795;47.986;11.868;2024-03-22T03:29:59;7.20;79.30
15394;DHT22;7795;47.986;11.868;2024-03-22T03:32:26;7.20;79.30
15394;DHT22;7795;47.986;11.868;2024-03-22T03:34:52;7.10;79.40
15394;DHT22;7795;47.986;11.868;2024-03-22T03:37:18;7.10;79.50
15394;DHT22;7795;47.986;11.868;2024-03-22T03:39:44;7.10;79.60
15394;DHT22;7795;47.986;11.868;2024-03-22T03:42:10;7.00;79.40
15394;DHT22;7795;47.986;11.868;2024-03-22T03:44:36;7.10;79.50
15394;DHT22;7795;47.986;11.868;2024-03-22T03:47:02;7.00;79.50
15394;DHT22;7795;47.986;11.868;2024-03-22T03:49:29;7.00;79.40
15394;DHT22;7795;47.986;11.868;2024-03-22T03:51:55;6.90;79.40
15394;DHT22;7795;47.986;11.868;2024-03-22T03:54:21;6.90;79.40
15394;DHT22;7795;47.986;11.868;2024-03-22T03:56:47;6.80;79.40
15394;DHT22;7795;47.986;11.868;2024-03-22T03:59:13;6.80;79.60
15394;DHT22;7795;47.986;11.868;2024-03-22T04:01:38;6.80;79.60
15394;DHT22;7795;47.986;11.868;2024-03-22T04:04:04;6.80;79.70
15394;DHT22;7795;47.986;11.868;2024-03-22T04:06:31;6.80;79.70
15394;DHT22;7795;47.986;11.868;2024-03-22T04:08:57;6.80;79.80
15394;DHT22;7795;47.986;11.868;2024-03-22T04:11:23;6.80;79.90
15394;DHT22;7795;47.986;11.868;2024-03-22T04:13:49;6.80;80.00
15394;DHT22;7795;47.986;11.868;2024-03-22T04:16:15;6.80;80.00
15394;DHT22;7795;47.986;11.868;2024-03-22T04:18:41;6.80;80.10
15394;DHT22;7795;47.986;11.868;2024-03-22T04:21:07;6.80;80.30
15394;DHT22;7795;47.986;11.868;2024-03-22T04:23:34;6.80;80.30
15394;DHT22;7795;47.986;11.868;2024-03-22T04:26:01;6.80;80.30
15394;DHT22;7795;47.986;11.868;2024-03-22T04:28:27;6.80;80.50
15394;DHT22;7795;47.986;11.868;2024-03-22T04:31:00;6.80;80.50
15394;DHT22;7795;47.986;11.868;2024-03-22T04:33:26;6.80;80.60
15394;DHT22;7795;47.986;11.868;2024-03-22T04:35:52;6.80;80.50
15394;DHT22;7795;47.986;11.868;2024-03-22T04:38:22;6.80;80.60
15394;DHT22;7795;47.986;11.868;2024-03-22T04:40:49;6.80;80.50
15394;DHT22;7795;47.986;11.868;2024-03-22T04:43:15;6.90;80.50
15394;DHT22;7795;47.986;11.868;2024-03-22T04:45:42;6.80;80.50
15394;DHT22;7795;47.986;11.868;2024-03-22T04:48:08;6.90;80.50
15394;DHT22;7795;47.986;11.868;2024-03-22T04:50:33;6.80;80.30
15394;DHT22;7795;47.986;11.868;2024-03-22T04:52:59;6.80;80.30
15394;DHT22;7795;47.986;11.868;2024-03-22T04:55:25;6.80;80.30
15394;DHT22;7795;47.986;11.868;2024-03-22T04:57:53;6.80;80.20
15394;DHT22;7795;47.986;11.868;2024-03-22T05:00:19;6.80;80.30
15394;DHT22;7795;47.986;11.868;2024-03-22T05:02:45;6.80;80.30
15394;DHT22;7795;47.986;11.868;2024-03-22T05:05:11;6.80;80.30
15394;DHT22;7795;47.986;11.868;2024-03-22T05:07:37;6.80;80.30
15394;DHT22;7795;47.986;11.868;2024-03-22T05:10:04;6.80;80.20
15394;DHT22;7795;47.986;11.868;2024-03-22T05:12:29;6.80;80.30
15394;DHT22;7795;47.986;11.868;2024-03-22T05:14:57;6.80;80.20
15394;DHT22;7795;47.986;11.868;2024-03-22T05:17:22;6.80;79.90
15394;DHT22;7795;47.986;11.868;2024-03-22T05:19:48;6.70;79.60
15394;DHT22;7795;47.986;11.868;2024-03-22T05:22:15;6.70;79.60
15394;DHT22;7795;47.986;11.868;2024-03-22T05:24:41;6.60;79.50
15394;DHT22;7795;47.986;11.868;2024-03-22T05:27:07;6.60;79.40
15394;DHT22;7795;47.986;11.868;2024-03-22T05:29:33;6.60;79.50
15394;DHT22;7795;47.986;11.868;2024-03-22T05:32:00;6.50;79.40
15394;DHT22;7795;47.986;11.868;2024-03-22T05:34:29;6.50;79.40
15394;DHT22;7795;47.986;11.868;2024-03-22T05:36:55;6.50;79.40
15394;DHT22;7795;47.986;11.868;2024-03-22T05:39:21;6.50;79.60
15394;DHT22;7795;47.986;11.868;2024-03-22T05:41:46;6.50;79.60
15394;DHT22;7795;47.986;11.868;2024-03-22T05:44:12;6.50;79.70
15394;DHT22;7795;47.986;11.868;2024-03-22T05:46:38;6.50;79.80
15394;DHT22;7795;47.986;11.868;2024-03-22T05:49:05;6.40;79.90
15394;DHT22;7795;47.986;11.868;2024-03-22T05:51:31;6.40;79.90
15394;DHT22;7795;47.986;11.868;2024-03-22T05:53:57;6.40;80.00
15394;DHT22;7795;47.986;11.868;2024-03-22T05:56:23;6.40;80.10
15394;DHT22;7795;47.986;11.868;2024-03-22T05:58:49;6.40;80.00
15394;DHT22;7795;47.986;11.868;2024-03-22T06:01:14;6.40;80.10
15394;DHT22;7795;47.986;11.868;2024-03-22T06:03:40;6.40;80.30
15394;DHT22;7795;47.986;11.868;2024-03-22T06:06:08;6.50;80.50
15394;DHT22;7795;47.986;11.868;2024-03-22T06:08:33;6.50;80.60
15394;DHT22;7795;47.986;11.868;2024-03-22T06:11:06;6.60;80.70
15394;DHT22;7795;47.986;11.868;2024-03-22T06:13:32;6.60;80.80
15394;DHT22;7795;47.986;11.868;2024-03-22T06:15:58;6.70;80.90
15394;DHT22;7795;47.986;11.868;2024-03-22T06:18:24;6.70;81.00
15394;DHT22;7795;47.986;11.868;2024-03-22T06:20:50;6.80;81.10
15394;DHT22;7795;47.986;11.868;2024-03-22T06:23:17;6.80;81.20
15394;DHT22;7795;47.986;11.868;2024-03-22T06:25:51;6.90;81.30
15394;DHT22;7795;47.986;11.868;2024-03-22T06:28:17;7.00;81.60
15394;DHT22;7795;47.986;11.868;2024-03-22T06:30:43;7.00;81.50
15394;DHT22;7795;47.986;11.868;2024-03-22T06:33:08;7.10;81.50
15394;DHT22;7795;47.986;11.868;2024-03-22T06:35:34;7.20;81.60
15394;DHT22;7795;47.986;11.868;2024-03-22T06:38:00;7.20;81.60
15394;DHT22;7795;47.986;11.868;2024-03-22T06:40:30;7.30;81.60
15394;DHT22;7795;47.986;11.868;2024-03-22T06:42:55;7.40;81.70
15394;DHT22;7795;47.986;11.868;2024-03-22T06:45:21;7.50;81.60
15394;DHT22;7795;47.986;11.868;2024-03-22T06:47:47;7.50;81.60
15394;DHT22;7795;47.986;11.868;2024-03-22T06:50:13;7.60;81.70
15394;DHT22;7795;47.986;11.868;2024-03-22T06:52:39;7.70;81.80
15394;DHT22;7795;47.986;11.868;2024-03-22T06:55:06;7.80;81.90
15394;DHT22;7795;47.986;11.868;2024-03-22T06:57:33;7.90;82.00
15394;DHT22;7795;47.986;11.868;2024-03-22T06:59:59;7.90;81.90
15394;DHT22;7795;47.986;11.868;2024-03-22T07:02:25;8.00;81.70
15394;DHT22;7795;47.986;11.868;2024-03-22T07:04:51;8.10;81.70
15394;DHT22;7795;47.986;11.868;2024-03-22T07:07:17;8.10;81.60
15394;DHT22;7795;47.986;11.868;2024-03-22T07:09:43;8.10;81.50
15394;DHT22;7795;47.986;11.868;2024-03-22T07:12:09;8.20;81.40
15394;DHT22;7795;47.986;11.868;2024-03-22T07:14:36;8.20;81.30
15394;DHT22;7795;47.986;11.868;2024-03-22T07:17:02;8.30;81.40
15394;DHT22;7795;47.986;11.868;2024-03-22T07:19:28;8.30;81.40
15394;DHT22;7795;47.986;11.868;2024-03-22T07:21:54;8.30;81.30
15394;DHT22;7795;47.986;11.868;2024-03-22T07:24:20;8.40;81.50
15394;DHT22;7795;47.986;11.868;2024-03-22T07:26:49;8.40;81.50
15394;DHT22;7795;47.986;11.868;2024-03-22T07:29:15;8.40;81.70
15394;DHT22;7795;47.986;11.868;2024-03-22T07:31:42;8.50;81.80
15394;DHT22;7795;47.986;11.868;2024-03-22T07:34:08;8.50;82.10
15394;DHT22;7795;47.986;11.868;2024-03-22T07:36:37;8.60;82.30
15394;DHT22;7795;47.986;11.868;2024-03-22T07:39:03;8.70;82.70
15394;DHT22;7795;47.986;11.868;2024-03-22T07:41:31;8.80;82.80
15394;DHT22;7795;47.986;11.868;2024-03-22T07:43:58;8.90;83.10
15394;DHT22;7795;47.986;11.868;2024-03-22T07:46:25;9.00;83.40
15394;DHT22;7795;47.986;11.868;2024-03-22T07:48:52;9.10;83.70
15394;DHT22;7795;47.986;11.868;2024-03-22T07:51:18;9.20;84.10
15394;DHT22;7795;47.986;11.868;2024-03-22T07:53:44;9.40;84.60
15394;DHT22;7795;47.986;11.868;2024-03-22T07:56:10;9.60;84.80
15394;DHT22;7795;47.986;11.868;2024-03-22T07:58:36;9.70;85.20
15394;DHT22;7795;47.986;11.868;2024-03-22T08:01:02;9.90;85.50
15394;DHT22;7795;47.986;11.868;2024-03-22T08:03:28;10.10;86.60
15394;DHT22;7795;47.986;11.868;2024-03-22T08:05:55;10.30;86.00
15394;DHT22;7795;47.986;11.868;2024-03-22T08:08:22;10.60;86.30
15394;DHT22;7795;47.986;11.868;2024-03-22T08:10:48;10.80;86.20
15394;DHT22;7795;47.986;11.868;2024-03-22T08:13:14;11.00;86.20
15394;DHT22;7795;47.986;11.868;2024-03-22T08:15:40;11.20;86.10
15394;DHT22;7795;47.986;11.868;2024-03-22T08:18:06;11.40;85.80
15394;DHT22;7795;47.986;11.868;2024-03-22T08:20:32;11.60;85.60
15394;DHT22;7795;47.986;11.868;2024-03-22T08:23:01;11.80;85.40
15394;DHT22;7795;47.986;11.868;2024-03-22T08:25:27;12.00;85.00
15394;DHT22;7795;47.986;11.868;2024-03-22T08:27:53;12.20;84.70
15394;DHT22;7795;47.986;11.868;2024-03-22T08:30:20;12.40;84.40
15394;DHT22;7795;47.986;11.868;2024-03-22T08:32:46;12.50;84.10
15394;DHT22;7795;47.986;11.868;2024-03-22T08:35:12;12.70;83.80
15394;DHT22;7795;47.986;11.868;2024-03-22T08:37:38;12.80;83.50
15394;DHT22;7795;47.986;11.868;2024-03-22T08:40:07;12.90;83.30
15394;DHT22;7795;47.986;11.868;2024-03-22T08:42:33;13.10;83.20
15394;DHT22;7795;47.986;11.868;2024-03-22T08:44:59;13.20;82.90
15394;DHT22;7795;47.986;11.868;2024-03-22T08:47:25;13.30;82.40
15394;DHT22;7795;47.986;11.868;2024-03-22T08:49:51;13.40;81.70
15394;DHT22;7795;47.986;11.868;2024-03-22T08:52:17;13.50;81.30
15394;DHT22;7795;47.986;11.868;2024-03-22T08:54:43;13.60;80.90
15394;DHT22;7795;47.986;11.868;2024-03-22T08:57:10;13.70;80.60
15394;DHT22;7795;47.986;11.868;2024-03-22T08:59:36;13.80;80.20
15394;DHT22;7795;47.986;11.868;2024-03-22T09:02:03;13.90;80.00
15394;DHT22;7795;47.986;11.868;2024-03-22T09:04:29;14.00;79.80
15394;DHT22;7795;47.986;11.868;2024-03-22T09:06:55;14.10;79.70
15394;DHT22;7795;47.986;11.868;2024-03-22T09:09:21;14.20;79.40
15394;DHT22;7795;47.986;11.868;2024-03-22T09:11:47;14.20;79.20
15394;DHT22;7795;47.986;11.868;2024-03-22T09:14:15;14.30;79.00
15394;DHT22;7795;47.986;11.868;2024-03-22T09:16:42;14.40;78.40
15394;DHT22;7795;47.986;11.868;2024-03-22T09:19:08;14.50;78.30
15394;DHT22;7795;47.986;11.868;2024-03-22T09:21:36;14.60;78.00
15394;DHT22;7795;47.986;11.868;2024-03-22T09:24:02;14.70;77.40
15394;DHT22;7795;47.986;11.868;2024-03-22T09:26:32;14.80;77.00
15394;DHT22;7795;47.986;11.868;2024-03-22T09:28:58;14.90;76.60
15394;DHT22;7795;47.986;11.868;2024-03-22T09:31:25;15.00;76.10
15394;DHT22;7795;47.986;11.868;2024-03-22T09:33:51;15.10;75.70
15394;DHT22;7795;47.986;11.868;2024-03-22T09:36:17;15.30;75.70
15394;DHT22;7795;47.986;11.868;2024-03-22T09:38:43;15.30;75.30
15394;DHT22;7795;47.986;11.868;2024-03-22T09:41:09;15.50;75.10
15394;DHT22;7795;47.986;11.868;2024-03-22T09:43:35;15.60;74.90
15394;DHT22;7795;47.986;11.868;2024-03-22T09:46:02;15.70;74.80
15394;DHT22;7795;47.986;11.868;2024-03-22T09:48:29;15.80;74.50
15394;DHT22;7795;47.986;11.868;2024-03-22T09:50:56;15.90;73.90
15394;DHT22;7795;47.986;11.868;2024-03-22T09:53:22;16.00;73.80
15394;DHT22;7795;47.986;11.868;2024-03-22T09:55:49;16.10;73.60
15394;DHT22;7795;47.986;11.868;2024-03-22T09:58:15;16.20;73.30
15394;DHT22;7795;47.986;11.868;2024-03-22T10:00:44;16.30;72.90
15394;DHT22;7795;47.986;11.868;2024-03-22T10:03:10;16.30;72.50
15394;DHT22;7795;47.986;11.868;2024-03-22T10:05:38;16.40;72.30
15394;DHT22;7795;47.986;11.868;2024-03-22T10:08:04;16.50;71.70
15394;DHT22;7795;47.986;11.868;2024-03-22T10:10:31;16.50;71.70
15394;DHT22;7795;47.986;11.868;2024-03-22T10:12:57;16.50;71.50
15394;DHT22;7795;47.986;11.868;2024-03-22T10:15:23;16.60;71.50
15394;DHT22;7795;47.986;11.868;2024-03-22T10:17:49;16.70;71.60
15394;DHT22;7795;47.986;11.868;2024-03-22T10:20:15;16.70;71.20
15394;DHT22;7795;47.986;11.868;2024-03-22T10:22:54;16.80;70.90
15394;DHT22;7795;47.986;11.868;2024-03-22T10:25:21;16.80;69.90
15394;DHT22;7795;47.986;11.868;2024-03-22T10:27:47;16.90;70.40
15394;DHT22;7795;47.986;11.868;2024-03-22T10:30:15;17.00;70.10
15394;DHT22;7795;47.986;11.868;2024-03-22T10:32:42;17.00;69.90
15394;DHT22;7795;47.986;11.868;2024-03-22T10:35:09;17.10;70.10
15394;DHT22;7795;47.986;11.868;2024-03-22T10:37:37;17.10;69.90
15394;DHT22;7795;47.986;11.868;2024-03-22T10:40:05;17.20;70.00
15394;DHT22;7795;47.986;11.868;2024-03-22T10:42:38;17.30;69.70
15394;DHT22;7795;47.986;11.868;2024-03-22T10:45:06;17.30;69.60
15394;DHT22;7795;47.986;11.868;2024-03-22T10:47:33;17.30;69.20
15394;DHT22;7795;47.986;11.868;2024-03-22T10:50:04;17.40;69.20
15394;DHT22;7795;47.986;11.868;2024-03-22T10:52:37;17.50;68.90
15394;DHT22;7795;47.986;11.868;2024-03-22T10:55:08;17.50;69.10
15394;DHT22;7795;47.986;11.868;2024-03-22T10:57:36;17.60;68.90
15394;DHT22;7795;47.986;11.868;2024-03-22T11:00:04;17.60;69.40
15394;DHT22;7795;47.986;11.868;2024-03-22T11:02:35;17.70;69.00
15394;DHT22;7795;47.986;11.868;2024-03-22T11:05:01;17.70;69.00
15394;DHT22;7795;47.986;11.868;2024-03-22T11:07:29;17.80;68.90
15394;DHT22;7795;47.986;11.868;2024-03-22T11:09:56;17.80;68.60
15394;DHT22;7795;47.986;11.868;2024-03-22T11:12:25;17.80;68.20
15394;DHT22;7795;47.986;11.868;2024-03-22T11:14:53;17.90;67.80
15394;DHT22;7795;47.986;11.868;2024-03-22T11:17:19;17.90;67.60
15394;DHT22;7795;47.986;11.868;2024-03-22T11:19:45;17.90;67.50
15394;DHT22;7795;47.986;11.868;2024-03-22T11:22:11;18.00;67.50
15394;DHT22;7795;47.986;11.868;2024-03-22T11:24:37;18.00;67.20
15394;DHT22;7795;47.986;11.868;2024-03-22T11:27:03;18.10;67.50
15394;DHT22;7795;47.986;11.868;2024-03-22T11:29:31;18.10;67.40
15394;DHT22;7795;47.986;11.868;2024-03-22T11:31:57;18.20;66.80
15394;DHT22;7795;47.986;11.868;2024-03-22T11:34:23;18.20;67.10
15394;DHT22;7795;47.986;11.868;2024-03-22T11:36:49;18.20;66.80
15394;DHT22;7795;47.986;11.868;2024-03-22T11:39:16;18.30;66.80
15394;DHT22;7795;47.986;11.868;2024-03-22T11:41:43;18.30;66.50
15394;DHT22;7795;47.986;11.868;2024-03-22T11:44:10;18.40;66.20
15394;DHT22;7795;47.986;11.868;2024-03-22T11:46:38;18.40;65.90
15394;DHT22;7795;47.986;11.868;2024-03-22T11:49:04;18.40;65.70
15394;DHT22;7795;47.986;11.868;2024-03-22T11:51:30;18.40;65.60
15394;DHT22;7795;47.986;11.868;2024-03-22T11:53:56;18.40;65.30
15394;DHT22;7795;47.986;11.868;2024-03-22T11:56:24;18.50;65.40
15394;DHT22;7795;47.986;11.868;2024-03-22T11:58:58;18.50;65.30
15394;DHT22;7795;47.986;11.868;2024-03-22T12:01:24;18.60;64.30
15394;DHT22;7795;47.986;11.868;2024-03-22T12:03:51;18.60;64.90
15394;DHT22;7795;47.986;11.868;2024-03-22T12:06:17;18.70;64.60
15394;DHT22;7795;47.986;11.868;2024-03-22T12:08:43;18.70;64.70
15394;DHT22;7795;47.986;11.868;2024-03-22T12:11:10;18.70;64.50
15394;DHT22;7795;47.986;11.868;2024-03-22T12:13:37;18.80;64.30
15394;DHT22;7795;47.986;11.868;2024-03-22T12:16:04;18.80;64.20
15394;DHT22;7795;47.986;11.868;2024-03-22T12:18:30;18.90;63.80
15394;DHT22;7795;47.986;11.868;2024-03-22T12:20:57;19.00;63.60
15394;DHT22;7795;47.986;11.868;2024-03-22T12:23:23;19.00;63.50
15394;DHT22;7795;47.986;11.868;2024-03-22T12:25:49;19.00;63.50
15394;DHT22;7795;47.986;11.868;2024-03-22T12:28:15;19.10;64.10
15394;DHT22;7795;47.986;11.868;2024-03-22T12:30:41;19.10;63.20
15394;DHT22;7795;47.986;11.868;2024-03-22T12:33:08;19.20;63.00
15394;DHT22;7795;47.986;11.868;2024-03-22T12:35:36;19.20;62.90
15394;DHT22;7795;47.986;11.868;2024-03-22T12:38:03;19.30;63.00
15394;DHT22;7795;47.986;11.868;2024-03-22T12:40:29;19.30;62.50
15394;DHT22;7795;47.986;11.868;2024-03-22T12:42:55;19.30;62.40
15394;DHT22;7795;47.986;11.868;2024-03-22T12:45:22;19.40;62.20
15394;DHT22;7795;47.986;11.868;2024-03-22T12:47:47;19.40;61.70
15394;DHT22;7795;47.986;11.868;2024-03-22T12:50:13;19.50;61.60
15394;DHT22;7795;47.986;11.868;2024-03-22T12:52:39;19.50;61.70
15394;DHT22;7795;47.986;11.868;2024-03-22T12:55:07;19.60;61.20
15394;DHT22;7795;47.986;11.868;2024-03-22T12:57:33;19.60;60.80
15394;DHT22;7795;47.986;11.868;2024-03-22T12:59:59;19.70;61.00
15394;DHT22;7795;47.986;11.868;2024-03-22T13:02:25;19.80;61.00
15394;DHT22;7795;47.986;11.868;2024-03-22T13:04:51;19.80;60.60
15394;DHT22;7795;47.986;11.868;2024-03-22T13:07:19;19.90;60.50
15394;DHT22;7795;47.986;11.868;2024-03-22T13:09:45;20.00;60.40
15394;DHT22;7795;47.986;11.868;2024-03-22T13:12:12;20.00;59.90
15394;DHT22;7795;47.986;11.868;2024-03-22T13:14:38;20.10;59.60
15394;DHT22;7795;47.986;11.868;2024-03-22T13:17:04;20.10;59.70
15394;DHT22;7795;47.986;11.868;2024-03-22T13:19:30;20.20;59.40
15394;DHT22;7795;47.986;11.868;2024-03-22T13:21:56;20.20;59.20
15394;DHT22;7795;47.986;11.868;2024-03-22T13:24:22;20.30;59.30
15394;DHT22;7795;47.986;11.868;2024-03-22T13:26:48;20.30;58.80
15394;DHT22;7795;47.986;11.868;2024-03-22T13:29:15;20.30;58.50
15394;DHT22;7795;47.986;11.868;2024-03-22T13:31:41;20.30;58.20
15394;DHT22;7795;47.986;11.868;2024-03-22T13:34:07;20.40;58.20
15394;DHT22;7795;47.986;11.868;2024-03-22T13:36:33;20.40;57.80
15394;DHT22;7795;47.986;11.868;2024-03-22T13:38:59;20.40;57.90
15394;DHT22;7795;47.986;11.868;2024-03-22T13:41:25;20.40;57.60
15394;DHT22;7795;47.986;11.868;2024-03-22T13:43:50;20.40;57.80
15394;DHT22;7795;47.986;11.868;2024-03-22T13:46:18;20.40;57.80
15394;DHT22;7795;47.986;11.868;2024-03-22T13:48:44;20.50;57.60
15394;DHT22;7795;47.986;11.868;2024-03-22T13:51:10;20.50;57.30
15394;DHT22;7795;47.986;11.868;2024-03-22T13:53:36;20.50;57.10
15394;DHT22;7795;47.986;11.868;2024-03-22T13:56:03;20.50;57.10
15394;DHT22;7795;47.986;11.868;2024-03-22T13:58:29;20.50;57.10
15394;DHT22;7795;47.986;11.868;2024-03-22T14:00:55;20.50;57.20
15394;DHT22;7795;47.986;11.868;2024-03-22T14:03:22;20.50;57.00
15394;DHT22;7795;47.986;11.868;2024-03-22T14:05:48;20.50;56.70
15394;DHT22;7795;47.986;11.868;2024-03-22T14:08:14;20.60;57.10
15394;DHT22;7795;47.986;11.868;2024-03-22T14:10:40;20.60;57.10
15394;DHT22;7795;47.986;11.868;2024-03-22T14:13:06;20.60;57.00
15394;DHT22;7795;47.986;11.868;2024-03-22T14:15:33;20.60;56.90
15394;DHT22;7795;47.986;11.868;2024-03-22T14:18:01;20.70;57.00
15394;DHT22;7795;47.986;11.868;2024-03-22T14:20:28;20.80;56.60
15394;DHT22;7795;47.986;11.868;2024-03-22T14:22:55;20.80;56.30
15394;DHT22;7795;47.986;11.868;2024-03-22T14:25:21;20.80;56.20
15394;DHT22;7795;47.986;11.868;2024-03-22T14:27:47;20.80;56.10
15394;DHT22;7795;47.986;11.868;2024-03-22T14:30:14;20.90;56.10
15394;DHT22;7795;47.986;11.868;2024-03-22T14:32:41;20.90;56.00
15394;DHT22;7795;47.986;11.868;2024-03-22T14:35:08;20.90;55.80
15394;DHT22;7795;47.986;11.868;2024-03-22T14:37:36;20.90;55.80
15394;DHT22;7795;47.986;11.868;2024-03-22T14:40:02;20.90;55.70
15394;DHT22;7795;47.986;11.868;2024-03-22T14:42:31;20.90;55.90
15394;DHT22;7795;47.986;11.868;2024-03-22T14:44:57;20.90;55.50
15394;DHT22;7795;47.986;11.868;2024-03-22T14:47:23;20.90;55.40
15394;DHT22;7795;47.986;11.868;2024-03-22T14:49:49;20.90;55.60
15394;DHT22;7795;47.986;11.868;2024-03-22T14:52:15;20.90;55.40
15394;DHT22;7795;47.986;11.868;2024-03-22T14:54:42;20.90;55.50
15394;DHT22;7795;47.986;11.868;2024-03-22T14:57:08;20.90;55.40
15394;DHT22;7795;47.986;11.868;2024-03-22T14:59:35;20.90;55.40
15394;DHT22;7795;47.986;11.868;2024-03-22T15:02:01;20.90;55.30
15394;DHT22;7795;47.986;11.868;2024-03-22T15:04:27;20.90;55.20
15394;DHT22;7795;47.986;11.868;2024-03-22T15:06:53;20.90;55.20
15394;DHT22;7795;47.986;11.868;2024-03-22T15:09:19;20.90;55.30
15394;DHT22;7795;47.986;11.868;2024-03-22T15:11:47;20.90;55.40
15394;DHT22;7795;47.986;11.868;2024-03-22T15:14:13;20.90;55.30
15394;DHT22;7795;47.986;11.868;2024-03-22T15:16:39;20.80;55.40
15394;DHT22;7795;47.986;11.868;2024-03-22T15:19:05;20.90;55.50
15394;DHT22;7795;47.986;11.868;2024-03-22T15:21:31;20.90;55.00
15394;DHT22;7795;47.986;11.868;2024-03-22T15:23:57;20.90;55.20
15394;DHT22;7795;47.986;11.868;2024-03-22T15:26:23;20.80;55.10
15394;DHT22;7795;47.986;11.868;2024-03-22T15:28:50;20.80;54.90
15394;DHT22;7795;47.986;11.868;2024-03-22T15:31:16;20.80;54.90